Calabasas Hills, California
Current Conditions -  °F | °C
As of 6:51 PM on Tuesday 21 Oct 2014 (Local Time) from KVNY Reporting Station
Clear Clear  
Wind Chill: 72°   Ceiling: Unl
Heat Index: 72°   Visibility: 10mi
Dew Point: 58°   Wind: 3mph
Humidity: 61%   Direction: 170°S
Pressure: 29.84"   Gusts: NA
Location:  34.1403°N, 118.762°W
Report Text: KVNY 220151Z 17003KT 10SM CLR 22/14 A2984 RMK AO2 SLP100 T02220144
Loading
Personal Weather Stations






























Interactive Weather Map
Tropical Storm Tracking
New forecast layout! Learn more

10-Day Weather Forecast

Advertisements
Track Severe Weather on mobile